LFRC/CER METAR and TAF weather

Enter ICAO airport designator
Station Type Date Time Source
LFRC METAR 2021/08/02 02:00 UTC NOAA

LFRC 020200Z AUTO 26004KT 7000 NSC 14/13 Q1014


Station Type Date Time Source
LFRC Decoded METAR 2021/08/02 02:00 UTC NOAA

Cherbourg / Maupertus, France (LFRC) 49-39N 001-28W 139M
Aug 01, 2021 - 10:00 PM EDT / 2021.08.02 0200 UTC
Wind: from the W (260 degrees) at 5 MPH (4 KT):0
Visibility: 4 mile(s):0
Temperature: 57 F (14 C)
Dew Point: 55 F (13 C)
Relative Humidity: 93%
Pressure (altimeter): 29.94 in. Hg (1014 hPa)
ob: LFRC 020200Z AUTO 26004KT 7000 NSC 14/13 Q1014
cycle: 2

Station Type Date Time Source
LFRC TAF 2008/10/12 17:07 UTC NOAA

TAF
AMD LFRC 121707Z 121721 CNL

Example: see airport list